createdAt,value
2022-11-01T00:00:48.529Z,0
2022-11-01T00:02:50.335Z,0
2022-11-01T00:04:51.354Z,0.28
2022-11-01T00:06:53.180Z,3.931
2022-11-01T00:08:54.759Z,1.123
2022-11-01T00:10:55.948Z,0
2022-11-01T00:12:57.323Z,2.527
2022-11-01T00:14:58.624Z,0.561
2022-11-01T00:16:59.952Z,0.702
2022-11-01T00:19:01.471Z,0
2022-11-01T00:21:02.896Z,0
2022-11-01T00:23:04.861Z,0
2022-11-01T00:25:05.687Z,0
2022-11-01T00:27:06.711Z,0
2022-11-01T00:29:07.660Z,0
2022-11-01T00:31:10.300Z,0
2022-11-01T00:35:11.224Z,0
2022-11-01T00:37:12.729Z,0
2022-11-01T00:39:13.807Z,0
2022-11-01T00:41:14.909Z,0
2022-11-01T00:45:18.069Z,0
2022-11-01T00:47:19.109Z,0
2022-11-01T00:49:21.015Z,0
2022-11-01T00:51:21.982Z,0
2022-11-01T00:53:23.756Z,0
2022-11-01T00:55:25.091Z,0
2022-11-01T00:57:26.939Z,0
2022-11-01T00:59:28.578Z,0
2022-11-01T01:01:30.379Z,0
2022-11-01T01:03:32.213Z,0
2022-11-01T01:07:34.781Z,0
2022-11-01T01:09:35.843Z,0
2022-11-01T01:11:37.512Z,0
2022-11-01T01:13:39.170Z,0
2022-11-01T01:17:42.069Z,0
2022-11-01T01:19:43.597Z,0
2022-11-01T01:21:44.858Z,0
2022-11-01T01:23:46.070Z,0
2022-11-01T01:27:49.117Z,0
2022-11-01T01:29:50.441Z,0
2022-11-01T01:31:51.950Z,0
2022-11-01T01:33:52.863Z,0
2022-11-01T01:35:54.062Z,0
2022-11-01T01:37:55.289Z,0
2022-11-01T01:39:56.528Z,0
2022-11-01T01:41:57.683Z,0
2022-11-01T01:43:58.805Z,0
2022-11-01T01:46:00.562Z,0
2022-11-01T01:48:02.225Z,0
2022-11-01T01:50:03.331Z,0
2022-11-01T01:52:04.792Z,0
2022-11-01T01:54:05.997Z,0
2022-11-01T01:56:07.294Z,0
2022-11-01T01:58:09.011Z,0
2022-11-01T02:00:10.847Z,0
2022-11-01T02:02:12.288Z,0
2022-11-01T02:04:13.912Z,0
2022-11-01T02:06:15.452Z,0
2022-11-01T02:08:16.485Z,0
2022-11-01T02:10:18.367Z,0
2022-11-01T02:12:19.980Z,0
2022-11-01T02:14:30.717Z,0
2022-11-01T02:16:22.747Z,0
2022-11-01T02:18:24.564Z,0
2022-11-01T02:20:26.415Z,0
2022-11-01T02:22:28.208Z,0
2022-11-01T02:24:30.100Z,0
2022-11-01T02:26:31.646Z,0
2022-11-01T02:28:33.299Z,0
2022-11-01T02:30:35.096Z,0
2022-11-01T02:32:36.070Z,0
2022-11-01T02:34:37.752Z,0
2022-11-01T02:36:39.532Z,0
2022-11-01T02:38:40.639Z,0
2022-11-01T02:40:41.661Z,0
2022-11-01T02:42:43.518Z,0
2022-11-01T02:44:45.083Z,0
2022-11-01T02:46:46.331Z,0
2022-11-01T02:48:47.560Z,0
2022-11-01T02:50:49.053Z,0
2022-11-01T02:52:50.954Z,0
2022-11-01T02:54:52.319Z,0
2022-11-01T02:56:54.316Z,0
2022-11-01T02:58:55.715Z,0
2022-11-01T03:00:57.669Z,0
2022-11-01T03:02:59.105Z,0
2022-11-01T03:05:00.926Z,0
2022-11-01T03:07:01.985Z,0
2022-11-01T03:09:03.443Z,0
2022-11-01T03:11:04.687Z,0
2022-11-01T03:13:06.330Z,0
2022-11-01T03:15:08.202Z,0
2022-11-01T03:17:09.745Z,0
2022-11-01T03:19:11.294Z,0
2022-11-01T03:21:12.576Z,0
2022-11-01T03:21:56.366Z,0
2022-11-01T03:23:57.795Z,0
2022-11-01T03:25:59.258Z,0
2022-11-01T03:28:00.963Z,0
2022-11-01T03:30:02.192Z,0
2022-11-01T03:32:03.589Z,0
2022-11-01T03:36:10.280Z,0
2022-11-01T03:38:07.652Z,0
2022-11-01T03:40:09.186Z,0
2022-11-01T03:42:10.288Z,0
2022-11-01T03:46:13.171Z,0
2022-11-01T03:48:14.906Z,0
2022-11-01T03:50:16.827Z,0
2022-11-01T03:52:18.014Z,0
2022-11-01T03:54:19.171Z,0
2022-11-01T03:56:20.605Z,0
2022-11-01T03:58:21.953Z,0
2022-11-01T04:00:23.223Z,0
2022-11-01T04:02:24.351Z,0
2022-11-01T04:04:25.481Z,1.123
2022-11-01T04:06:26.487Z,0.982
2022-11-01T04:08:28.402Z,1.825
2022-11-01T04:10:30.041Z,0
2022-11-01T04:12:31.019Z,0
2022-11-01T04:14:32.307Z,1.965
2022-11-01T04:18:34.571Z,0
2022-11-01T04:20:36.175Z,0
2022-11-01T04:22:37.741Z,2.808
2022-11-01T04:24:39.164Z,1.404
2022-11-01T04:28:42.000Z,1.404
2022-11-01T04:30:43.224Z,0.14
2022-11-01T04:32:44.431Z,1.263
2022-11-01T04:34:45.895Z,0.561
2022-11-01T04:36:47.282Z,0.28
2022-11-01T04:38:48.698Z,0
2022-11-01T04:40:49.809Z,0
2022-11-01T04:42:51.187Z,0
2022-11-01T04:44:52.490Z,0
2022-11-01T04:46:53.535Z,0.28
2022-11-01T04:48:54.925Z,0
2022-11-01T04:50:56.278Z,0
2022-11-01T04:52:57.767Z,0
2022-11-01T04:54:59.083Z,0
2022-11-01T04:57:00.039Z,0
2022-11-01T04:59:01.302Z,0
2022-11-01T05:01:03.250Z,0
2022-11-01T05:03:04.845Z,0
2022-11-01T05:05:05.690Z,0
2022-11-01T05:07:07.006Z,0
2022-11-01T05:09:08.181Z,0
2022-11-01T05:11:09.123Z,0
2022-11-01T05:13:10.613Z,0
2022-11-01T05:17:13.554Z,0.842
2022-11-01T05:19:15.216Z,0
2022-11-01T05:21:16.410Z,0
2022-11-01T05:23:17.913Z,0
2022-11-01T05:25:19.484Z,0
2022-11-01T05:27:20.571Z,0
2022-11-01T05:29:32.324Z,0
2022-11-01T05:31:23.245Z,0
2022-11-01T05:33:24.663Z,0
2022-11-01T05:35:25.990Z,0
2022-11-01T05:37:28.162Z,0
2022-11-01T05:39:28.772Z,0
2022-11-01T05:41:30.242Z,0
2022-11-01T05:43:31.531Z,0
2022-11-01T05:45:32.851Z,0
2022-11-01T05:47:34.507Z,0
2022-11-01T05:49:35.943Z,0
2022-11-01T05:51:37.304Z,0
2022-11-01T05:53:39.092Z,0
2022-11-01T05:55:40.882Z,0
2022-11-01T05:59:43.552Z,0
2022-11-01T06:01:44.696Z,0
2022-11-01T06:03:45.778Z,0
2022-11-01T06:05:47.636Z,0
2022-11-01T06:07:49.543Z,0
2022-11-01T06:09:51.007Z,0
2022-11-01T06:11:52.310Z,0
2022-11-01T06:13:53.240Z,0
2022-11-01T06:15:54.186Z,0
2022-11-01T06:17:55.939Z,0
2022-11-01T06:19:57.670Z,0.702
2022-11-01T06:21:59.574Z,0
2022-11-01T06:24:00.671Z,0.14
2022-11-01T06:26:02.510Z,0.421
2022-11-01T06:28:03.959Z,1.965
2022-11-01T06:30:04.570Z,0
2022-11-01T06:32:05.970Z,0.14
2022-11-01T06:34:06.898Z,0.561
2022-11-01T06:36:07.949Z,0
2022-11-01T06:38:09.410Z,2.386
2022-11-01T06:40:10.396Z,0.14
2022-11-01T06:42:11.898Z,0
2022-11-01T06:44:12.941Z,0
2022-11-01T06:46:13.928Z,0.982
2022-11-01T06:48:15.382Z,1.825
2022-11-01T06:58:22.684Z,1.263
2022-11-01T07:00:24.182Z,0
2022-11-01T07:02:29.577Z,1.684
2022-11-01T07:04:27.150Z,2.106
2022-11-01T07:06:28.848Z,0.14
2022-11-01T07:08:29.926Z,1.544
2022-11-01T07:10:31.372Z,0.14
2022-11-01T07:12:32.456Z,0.842
2022-11-01T07:14:34.015Z,1.825
2022-11-01T07:16:35.516Z,0.561
2022-11-01T07:18:37.401Z,0.14
2022-11-01T07:20:38.723Z,0.28
2022-11-01T07:22:39.602Z,0.702
2022-11-01T07:24:40.971Z,0
2022-11-01T07:26:42.885Z,0
2022-11-01T07:28:44.293Z,0.561
2022-11-01T07:30:45.447Z,1.404
2022-11-01T07:32:47.039Z,0.702
2022-11-01T07:34:48.019Z,1.123
2022-11-01T07:36:49.311Z,1.263
2022-11-01T07:40:51.971Z,2.386
2022-11-01T07:42:53.621Z,2.527
2022-11-01T07:44:54.487Z,2.106
2022-11-01T07:46:55.632Z,1.684
2022-11-01T07:50:58.572Z,2.106
2022-11-01T07:53:00.251Z,2.386
2022-11-01T07:55:01.361Z,0.14
2022-11-01T07:57:02.518Z,2.246
2022-11-01T07:59:04.057Z,1.123
2022-11-01T08:01:05.008Z,1.825
2022-11-01T08:03:06.725Z,0.14
2022-11-01T08:05:07.788Z,1.544
2022-11-01T08:07:09.677Z,0.702
2022-11-01T08:09:11.381Z,0.702
2022-11-01T08:11:13.075Z,1.123
2022-11-01T08:13:14.146Z,2.948
2022-11-01T08:15:15.522Z,2.246
2022-11-01T08:17:17.377Z,1.684
2022-11-01T08:19:19.024Z,2.246
2022-11-01T08:23:20.998Z,1.965
2022-11-01T08:25:22.316Z,2.106
2022-11-01T08:27:23.912Z,2.667
2022-11-01T08:29:25.395Z,0
2022-11-01T08:33:28.290Z,0.28
2022-11-01T08:35:29.236Z,0.14
2022-11-01T08:37:30.213Z,2.246
2022-11-01T08:39:32.020Z,2.667
2022-11-01T08:41:36.574Z,1.684
2022-11-01T08:43:37.872Z,4.071
2022-11-01T08:45:36.811Z,2.386
2022-11-01T08:47:38.645Z,3.088
2022-11-01T08:49:40.208Z,3.51
2022-11-01T08:51:41.174Z,1.404
2022-11-01T08:53:42.417Z,0
2022-11-01T08:55:44.224Z,2.106
2022-11-01T08:57:45.078Z,1.684
2022-11-01T08:59:46.730Z,3.369
2022-11-01T09:01:47.818Z,5.054
2022-11-01T09:03:48.961Z,2.948
2022-11-01T09:05:50.143Z,2.948
2022-11-01T09:07:51.851Z,2.527
2022-11-01T09:09:53.286Z,1.684
2022-11-01T09:11:54.544Z,2.948
2022-11-01T09:16:01.349Z,6.037
2022-11-01T09:17:58.963Z,3.51
2022-11-01T09:20:00.969Z,13.759
2022-11-01T09:22:01.953Z,5.896
2022-11-01T09:24:03.468Z,7.16
2022-11-01T09:26:04.766Z,2.808
2022-11-01T09:28:05.864Z,4.492
2022-11-01T09:30:07.048Z,4.914
2022-11-01T09:32:08.333Z,4.633
2022-11-01T09:34:09.772Z,11.232
2022-11-01T09:36:11.558Z,4.914
2022-11-01T09:38:12.994Z,7.581
2022-11-01T09:40:13.927Z,7.3
2022-11-01T09:42:15.668Z,7.02
2022-11-01T09:44:16.956Z,5.054
2022-11-01T09:46:18.294Z,2.808
2022-11-01T09:48:19.548Z,7.862
2022-11-01T09:50:21.361Z,7.441
2022-11-01T09:52:22.989Z,8.424
2022-11-01T09:54:23.838Z,8.704
2022-11-01T09:56:24.732Z,7.3
2022-11-01T09:58:25.964Z,8.143
2022-11-01T10:00:27.198Z,5.896
2022-11-01T10:04:30.530Z,6.037
2022-11-01T10:06:31.478Z,4.492
2022-11-01T10:07:15.276Z,7.722
2022-11-01T10:09:16.753Z,6.879
2022-11-01T10:11:17.588Z,5.896
2022-11-01T10:13:19.185Z,8.564
2022-11-01T10:15:20.147Z,9.687
2022-11-01T10:17:20.953Z,3.931
2022-11-01T10:21:24.690Z,10.81
2022-11-01T10:23:25.673Z,8.283
2022-11-01T10:25:27.285Z,6.037
2022-11-01T10:27:30.804Z,8.424
2022-11-01T10:31:30.407Z,10.67
2022-11-01T10:33:32.075Z,12.214
2022-11-01T10:35:33.735Z,10.389
2022-11-01T10:37:35.474Z,11.512
2022-11-01T10:41:37.729Z,10.81
2022-11-01T10:43:39.196Z,11.793
2022-11-01T10:45:43.603Z,14.04
2022-11-01T10:47:41.804Z,15.163
2022-11-01T10:51:44.301Z,12.636
2022-11-01T10:53:45.198Z,9.547
2022-11-01T10:55:46.675Z,8.564
2022-11-01T10:57:48.396Z,9.126
2022-11-01T10:59:49.862Z,10.67
2022-11-01T11:01:51.202Z,7.3
2022-11-01T11:03:52.001Z,6.037
2022-11-01T11:05:53.387Z,12.074
2022-11-01T11:07:54.320Z,9.547
2022-11-01T11:09:55.977Z,13.338
2022-11-01T11:11:57.188Z,4.633
2022-11-01T11:13:58.513Z,9.968
2022-11-01T11:15:59.511Z,7.16
2022-11-01T11:18:01.093Z,8.845
2022-11-01T11:20:02.986Z,13.197
2022-11-01T11:22:03.632Z,4.352
2022-11-01T11:24:05.203Z,9.266
2022-11-01T11:26:06.463Z,5.054
2022-11-01T11:28:07.674Z,6.598
2022-11-01T11:30:08.967Z,7.581
2022-11-01T11:32:10.741Z,14.18
2022-11-01T11:34:12.254Z,10.951
2022-11-01T11:36:13.093Z,3.65
2022-11-01T11:40:15.050Z,9.266
2022-11-01T11:42:16.645Z,8.002
2022-11-01T11:44:17.960Z,10.249
2022-11-01T11:46:19.345Z,10.389
2022-11-01T11:50:21.238Z,10.951
2022-11-01T11:52:26.832Z,9.266
2022-11-01T11:54:23.743Z,9.547
2022-11-01T11:56:24.902Z,10.67
2022-11-01T11:58:25.936Z,6.458
2022-11-01T12:02:28.664Z,7.581
2022-11-01T12:04:30.417Z,4.633
2022-11-01T12:06:31.801Z,1.825
2022-11-01T12:08:33.307Z,8.143
2022-11-01T12:12:36.239Z,7.16
2022-11-01T12:14:37.713Z,10.53
2022-11-01T12:16:39.239Z,2.808
2022-11-01T12:18:40.595Z,6.879
2022-11-01T12:22:43.811Z,7.16
2022-11-01T12:24:45.606Z,6.739
2022-11-01T12:26:46.584Z,7.581
2022-11-01T12:28:48.482Z,5.194
2022-11-01T12:32:50.497Z,6.739
2022-11-01T12:34:51.404Z,8.002
2022-11-01T12:40:55.998Z,8.564
2022-11-01T12:42:56.912Z,8.424
2022-11-01T12:44:58.640Z,8.704
2022-11-01T12:47:00.189Z,9.687
2022-11-01T12:49:01.084Z,4.914
2022-11-01T12:51:02.506Z,5.896
2022-11-01T12:53:03.653Z,8.283
2022-11-01T12:55:05.081Z,6.177
2022-11-01T12:57:06.129Z,6.598
2022-11-01T12:59:07.464Z,7.02
2022-11-01T13:01:08.735Z,14.882
2022-11-01T13:03:09.699Z,7.581
2022-11-01T13:05:10.837Z,9.126
2022-11-01T13:07:12.636Z,6.879
2022-11-01T13:09:14.291Z,15.163
2022-11-01T13:11:15.208Z,5.475
2022-11-01T13:13:16.099Z,11.372
2022-11-01T13:15:17.288Z,9.968
2022-11-01T13:17:18.178Z,6.598
2022-11-01T13:23:21.559Z,6.598
2022-11-01T13:25:22.953Z,2.667
2022-11-01T13:27:23.779Z,6.177
2022-11-01T13:31:25.862Z,6.879
2022-11-01T13:33:26.885Z,9.126
2022-11-01T13:35:28.285Z,7.722
2022-11-01T13:37:29.576Z,9.266
2022-11-01T13:39:30.771Z,6.739
2022-11-01T13:41:32.428Z,4.071
2022-11-01T13:43:33.974Z,5.756
2022-11-01T13:45:35.498Z,10.249
2022-11-01T13:47:36.746Z,7.581
2022-11-01T13:49:38.341Z,6.318
2022-11-01T13:51:39.921Z,4.773
2022-11-01T13:53:41.014Z,10.249
2022-11-01T13:55:42.164Z,4.352
2022-11-01T13:57:44.832Z,7.16
2022-11-01T13:59:45.066Z,9.547
2022-11-01T14:03:49.760Z,7.722
2022-11-01T14:05:48.178Z,6.037
2022-11-01T14:07:49.616Z,6.037
2022-11-01T14:09:51.023Z,8.424
2022-11-01T14:13:53.587Z,10.108
2022-11-01T14:15:55.188Z,8.564
2022-11-01T14:17:56.549Z,7.16
2022-11-01T14:19:57.618Z,4.914
2022-11-01T14:21:58.871Z,6.458
2022-11-01T14:24:00.392Z,4.071
2022-11-01T14:26:01.883Z,5.194
2022-11-01T14:28:03.030Z,5.054
2022-11-01T14:30:04.404Z,6.318
2022-11-01T14:32:05.512Z,6.037
2022-11-01T14:34:07.086Z,5.616
2022-11-01T14:36:08.514Z,3.369
2022-11-01T14:38:10.342Z,4.352
2022-11-01T14:40:12.099Z,6.318
2022-11-01T14:42:13.481Z,4.914
2022-11-01T14:46:16.118Z,4.633
2022-11-01T14:48:17.856Z,3.229
2022-11-01T14:50:18.867Z,6.318
2022-11-01T14:52:20.509Z,4.633
2022-11-01T14:54:22.294Z,2.386
2022-11-01T14:56:23.566Z,2.808
2022-11-01T14:58:24.500Z,4.773
2022-11-01T15:00:25.649Z,5.054
2022-11-01T15:02:27.444Z,1.544
2022-11-01T15:04:28.211Z,3.931
2022-11-01T15:06:29.123Z,2.527
2022-11-01T15:08:30.556Z,3.51
2022-11-01T15:10:32.158Z,2.948
2022-11-01T15:12:33.901Z,2.667
2022-11-01T15:14:34.948Z,2.667
2022-11-01T15:16:36.608Z,6.037
2022-11-01T15:18:38.252Z,3.65
2022-11-01T15:20:39.355Z,3.51
2022-11-01T15:22:40.863Z,0.561
2022-11-01T15:24:42.129Z,5.054
2022-11-01T15:26:43.206Z,1.825
2022-11-01T15:28:44.518Z,6.458
2022-11-01T15:30:45.623Z,2.527
2022-11-01T15:32:47.280Z,1.544
2022-11-01T15:34:48.324Z,0.561
2022-11-01T15:36:49.996Z,4.492
2022-11-01T15:38:51.563Z,4.633
2022-11-01T15:40:53.390Z,4.352
2022-11-01T15:42:54.596Z,3.088
2022-11-01T15:44:55.943Z,4.071
2022-11-01T15:46:56.960Z,2.106
2022-11-01T15:48:58.135Z,1.544
2022-11-01T15:50:59.440Z,3.65
2022-11-01T15:53:03.791Z,3.51
2022-11-01T15:55:01.298Z,5.616
2022-11-01T15:57:02.214Z,3.229
2022-11-01T15:59:03.738Z,4.352
2022-11-01T16:01:05.593Z,0.982
2022-11-01T16:03:07.253Z,0.28
2022-11-01T16:05:08.878Z,0.842
2022-11-01T16:07:10.456Z,0.561
2022-11-01T16:09:12.251Z,2.667
2022-11-01T16:11:13.166Z,2.948
2022-11-01T16:13:14.680Z,3.369
2022-11-01T16:17:17.140Z,0.561
2022-11-01T16:19:18.288Z,0.561
2022-11-01T16:21:20.118Z,0.421
2022-11-01T16:23:21.499Z,0.421
2022-11-01T16:27:24.155Z,2.106
2022-11-01T16:29:25.264Z,3.229
2022-11-01T16:31:26.677Z,1.544
2022-11-01T16:33:27.949Z,1.825
2022-11-01T16:35:29.806Z,2.386
2022-11-01T16:37:31.570Z,2.246
2022-11-01T16:39:33.200Z,4.352
2022-11-01T16:41:36.475Z,1.825
2022-11-01T16:43:36.484Z,2.527
2022-11-01T16:45:37.384Z,0
2022-11-01T16:47:39.163Z,2.386
2022-11-01T16:49:40.341Z,1.123
2022-11-01T16:51:41.870Z,0.702
2022-11-01T16:54:27.282Z,0
2022-11-01T16:56:36.402Z,0
2022-11-01T16:58:29.789Z,0
2022-11-01T17:00:30.985Z,0
2022-11-01T17:04:33.762Z,0
2022-11-01T17:06:38.794Z,0.702
2022-11-01T17:08:36.281Z,1.404
2022-11-01T17:10:37.661Z,0.28
2022-11-01T17:12:38.842Z,0
2022-11-01T17:16:42.483Z,0.421
2022-11-01T17:18:43.893Z,0
2022-11-01T17:20:45.011Z,0
2022-11-01T17:22:46.835Z,0.561
2022-11-01T17:24:48.292Z,0
2022-11-01T17:26:49.342Z,1.404
2022-11-01T17:28:52.410Z,0
2022-11-01T17:30:51.908Z,0
2022-11-01T17:32:53.550Z,0.561
2022-11-01T17:34:54.752Z,0.421
2022-11-01T17:36:55.712Z,0
2022-11-01T17:38:56.983Z,0.842
2022-11-01T17:40:58.165Z,0
2022-11-01T17:42:59.111Z,0
2022-11-01T17:45:00.737Z,0
2022-11-01T17:47:02.558Z,0
2022-11-01T17:49:03.685Z,0
2022-11-01T17:51:05.479Z,0
2022-11-01T17:53:07.161Z,0
2022-11-01T17:55:08.978Z,0
2022-11-01T17:57:10.020Z,0
2022-11-01T17:59:11.725Z,0
2022-11-01T18:01:12.831Z,0
2022-11-01T18:03:13.733Z,0
2022-11-01T18:05:15.619Z,0
2022-11-01T18:07:17.458Z,0
2022-11-01T18:09:19.266Z,0
2022-11-01T18:11:21.136Z,0
2022-11-01T18:13:22.608Z,0
2022-11-01T18:15:24.020Z,0
2022-11-01T18:17:25.166Z,0
2022-11-01T18:19:26.610Z,0
2022-11-01T18:21:28.252Z,0
2022-11-01T18:23:29.360Z,0
2022-11-01T18:25:30.455Z,0
2022-11-01T18:27:32.041Z,0
2022-11-01T18:29:37.666Z,0
2022-11-01T18:31:35.311Z,0
2022-11-01T18:35:38.782Z,0
2022-11-01T18:37:40.427Z,0
2022-11-01T18:39:41.821Z,0
2022-11-01T18:41:42.923Z,0
2022-11-01T18:45:57.953Z,0
2022-11-01T18:47:46.952Z,0
2022-11-01T18:49:48.691Z,0
2022-11-01T18:51:50.584Z,0
2022-11-01T18:53:52.533Z,0
2022-11-01T18:55:53.658Z,0
2022-11-01T18:57:54.588Z,0.14
2022-11-01T18:59:55.882Z,0
2022-11-01T19:01:57.654Z,0
2022-11-01T19:03:58.664Z,0
2022-11-01T19:06:00.382Z,0
2022-11-01T19:08:11.151Z,0
2022-11-01T19:10:03.026Z,0
2022-11-01T19:12:04.465Z,0
2022-11-01T19:14:05.559Z,0
2022-11-01T19:18:08.067Z,0
2022-11-01T19:20:09.131Z,0
2022-11-01T19:22:10.149Z,0
2022-11-01T19:24:11.336Z,0
2022-11-01T19:28:13.870Z,0
2022-11-01T19:30:14.810Z,0
2022-11-01T19:34:17.882Z,1.544
2022-11-01T19:36:19.151Z,0
2022-11-01T19:38:20.840Z,0
2022-11-01T19:40:26.613Z,0
2022-11-01T19:42:24.057Z,0
2022-11-01T19:44:25.324Z,0
2022-11-01T19:46:26.869Z,0
2022-11-01T19:48:28.141Z,0
2022-11-01T19:50:29.242Z,0
2022-11-01T19:52:30.556Z,0
2022-11-01T19:54:31.695Z,0
2022-11-01T19:56:33.054Z,0
2022-11-01T19:58:35.803Z,0
2022-11-01T20:00:35.957Z,0
2022-11-01T20:02:37.162Z,0
2022-11-01T20:04:38.256Z,0
2022-11-01T20:06:39.597Z,0
2022-11-01T20:08:41.002Z,0
2022-11-01T20:10:42.829Z,0
2022-11-01T20:12:44.880Z,0
2022-11-01T20:14:45.728Z,0
2022-11-01T20:16:47.154Z,0
2022-11-01T20:18:48.713Z,0
2022-11-01T20:20:50.103Z,0
2022-11-01T20:23:00.338Z,0
2022-11-01T20:24:53.207Z,0
2022-11-01T20:26:54.472Z,0
2022-11-01T20:28:55.538Z,0
2022-11-01T20:30:56.878Z,0
2022-11-01T20:32:58.616Z,0
2022-11-01T20:35:00.434Z,0
2022-11-01T20:37:26.752Z,0
2022-11-01T20:39:03.732Z,0
2022-11-01T20:41:05.143Z,0
2022-11-01T20:43:07.274Z,0
2022-11-01T20:45:08.546Z,0
2022-11-01T20:47:09.721Z,0
2022-11-01T20:49:11.494Z,0
2022-11-01T20:51:12.958Z,0
2022-11-01T20:53:14.572Z,0
2022-11-01T20:55:15.578Z,0
2022-11-01T20:59:20.333Z,0
2022-11-01T21:01:19.603Z,0
2022-11-01T21:03:20.638Z,0
2022-11-01T21:05:22.291Z,0
2022-11-01T21:09:25.469Z,0
2022-11-01T21:11:26.709Z,0
2022-11-01T21:13:28.487Z,0
2022-11-01T21:15:29.658Z,0
2022-11-01T21:17:31.200Z,0
2022-11-01T21:21:34.505Z,0
2022-11-01T21:23:35.712Z,0
2022-11-01T21:25:36.664Z,0
2022-11-01T21:27:37.868Z,0
2022-11-01T21:29:39.487Z,0
2022-11-01T21:31:40.737Z,0
2022-11-01T21:33:42.531Z,0
2022-11-01T21:35:44.149Z,0
2022-11-01T21:37:45.496Z,0
2022-11-01T21:41:48.603Z,0
2022-11-01T21:43:50.125Z,0
2022-11-01T21:45:52.039Z,0
2022-11-01T21:47:53.825Z,0
2022-11-01T21:51:56.276Z,0
2022-11-01T21:54:00.066Z,0
2022-11-01T21:55:59.371Z,0
2022-11-01T21:58:00.831Z,0
2022-11-01T22:00:02.087Z,0
2022-11-01T22:04:05.609Z,0
2022-11-01T22:06:06.722Z,0
2022-11-01T22:08:08.039Z,4.633
2022-11-01T22:10:09.393Z,0
2022-11-01T22:12:11.100Z,0
2022-11-01T22:14:12.699Z,0
2022-11-01T22:16:14.144Z,0
2022-11-01T22:18:17.970Z,0
2022-11-01T22:20:17.711Z,0
2022-11-01T22:24:20.259Z,0
2022-11-01T22:26:21.765Z,0
2022-11-01T22:28:22.985Z,0
2022-11-01T22:30:24.819Z,0
2022-11-01T22:34:28.230Z,0
2022-11-01T22:36:29.245Z,0
2022-11-01T22:38:31.202Z,0
2022-11-01T22:40:32.350Z,0
2022-11-01T22:42:33.429Z,0
2022-11-01T22:44:34.703Z,0
2022-11-01T22:46:36.572Z,0
2022-11-01T22:48:38.362Z,0
2022-11-01T22:50:40.146Z,0
2022-11-01T22:52:41.518Z,0
2022-11-01T22:54:42.520Z,0
2022-11-01T22:56:44.102Z,0
2022-11-01T22:58:45.573Z,0
2022-11-01T23:00:47.430Z,0
2022-11-01T23:02:48.785Z,0
2022-11-01T23:04:50.047Z,0
2022-11-01T23:06:51.574Z,0
2022-11-01T23:08:56.213Z,0
2022-11-01T23:10:54.735Z,0
2022-11-01T23:12:55.772Z,0
2022-11-01T23:14:56.741Z,0
2022-11-01T23:16:58.268Z,0
2022-11-01T23:18:59.508Z,0
2022-11-01T23:21:00.836Z,0
2022-11-01T23:23:02.691Z,0
2022-11-01T23:25:03.718Z,0
2022-11-01T23:27:05.039Z,0
2022-11-01T23:29:06.097Z,0
2022-11-01T23:31:08.019Z,0
2022-11-01T23:33:09.227Z,0
2022-11-01T23:35:10.479Z,0
2022-11-01T23:37:11.636Z,0
2022-11-01T23:37:55.485Z,0
2022-11-01T23:39:56.534Z,0
2022-11-01T23:41:58.480Z,0
2022-11-01T23:43:59.955Z,0
2022-11-01T23:46:01.593Z,0
2022-11-01T23:48:02.697Z,0
2022-11-01T23:50:04.383Z,0
2022-11-01T23:52:05.529Z,0
2022-11-01T23:54:06.958Z,0
2022-11-01T23:56:08.638Z,0
